Time;durP1;ratioP1;P1;durP2;ratioP2;P2;SDS_P1;SDS_P2;PMS_P1;PMS_P2;Temp;Humidity;BMP_temperature;BMP_pressure;BME280_temperature;BME280_humidity;BME280_pressure;Samples;Min_cycle;Max_cycle;Signal;HPM_P1;HPM_P2
2022/07/19 00:00:55;;;;;;;3.60;1.67;;;;;;;17.34;61.64;100284.45;1727547;82;21003;-75
2022/07/19 00:03:22;;;;;;;1.50;1.37;;;;;;;17.35;61.59;100287.44;1727424;82;21041;-74
2022/07/19 00:05:50;;;;;;;1.62;1.30;;;;;;;17.36;61.54;100287.14;1727434;83;21082;-73
2022/07/19 00:08:18;;;;;;;1.52;1.42;;;;;;;17.38;61.51;100281.43;1727685;83;21224;-74
2022/07/19 00:10:44;;;;;;;1.67;1.47;;;;;;;17.38;61.49;100286.33;1732439;81;20939;-73
2022/07/19 00:13:11;;;;;;;2.47;1.60;;;;;;;17.39;61.44;100281.70;1745878;81;21044;-74
2022/07/19 00:15:39;;;;;;;3.92;1.45;;;;;;;17.39;61.47;100283.06;1737653;81;21072;-74
2022/07/19 00:18:06;;;;;;;1.60;1.50;;;;;;;17.41;61.50;100282.22;1751719;80;21051;-75
2022/07/19 00:20:34;;;;;;;3.55;1.80;;;;;;;17.41;61.47;100281.67;1735412;82;21282;-69
2022/07/19 00:23:00;;;;;;;1.35;1.25;;;;;;;17.43;61.38;100281.41;1692005;84;20959;-71
2022/07/19 00:25:28;;;;;;;3.72;1.55;;;;;;;17.46;61.24;100280.83;1708228;83;20979;-70
2022/07/19 00:27:55;;;;;;;1.52;1.40;;;;;;;17.48;61.15;100281.37;1708247;84;21012;-70
2022/07/19 00:30:23;;;;;;;2.50;1.70;;;;;;;17.51;60.96;100277.27;1708040;82;21085;-70
2022/07/19 00:32:50;;;;;;;1.90;1.67;;;;;;;17.52;60.97;100275.64;1708442;83;21067;-70
2022/07/19 00:35:17;;;;;;;2.50;1.50;;;;;;;17.54;60.76;100278.09;1708335;83;21063;-70
2022/07/19 00:37:45;;;;;;;1.77;1.30;;;;;;;17.55;60.71;100274.28;1718619;82;21026;-70
2022/07/19 00:40:12;;;;;;;1.40;1.30;;;;;;;17.56;60.50;100279.42;1727762;81;21537;-72
2022/07/19 00:42:39;;;;;;;2.22;1.67;;;;;;;17.59;60.48;100278.09;1720261;82;21070;-70
2022/07/19 00:45:07;;;;;;;1.32;1.22;;;;;;;17.60;60.26;100275.64;1724864;81;21314;-77
2022/07/19 00:47:34;;;;;;;1.92;1.22;;;;;;;17.62;60.07;100275.61;1695585;83;21071;-74
2022/07/19 00:50:00;;;;;;;2.22;1.22;;;;;;;17.65;59.91;100266.09;1736293;82;21035;-75
2022/07/19 00:52:27;;;;;;;3.60;1.40;;;;;;;17.69;59.68;100260.34;1751245;82;20979;-74
2022/07/19 00:54:54;;;;;;;2.47;1.30;;;;;;;17.72;59.62;100267.92;1736340;81;21153;-78
2022/07/19 00:57:20;;;;;;;1.95;1.75;;;;;;;17.76;59.35;100268.98;1737161;81;21141;-81
2022/07/19 00:59:49;;;;;;;1.47;1.37;;;;;;;17.79;59.16;100268.44;1727179;81;21015;-78
2022/07/19 01:02:17;;;;;;;1.62;1.30;;;;;;;17.82;59.08;100266.50;1737723;82;21030;-76
2022/07/19 01:04:44;;;;;;;1.40;1.30;;;;;;;17.83;58.99;100258.06;1706822;84;21022;-80
2022/07/19 01:07:10;;;;;;;1.37;1.12;;;;;;;17.86;58.68;100260.75;1731385;81;21096;-77
2022/07/19 01:09:37;;;;;;;1.55;1.40;;;;;;;17.86;58.55;100256.12;1727301;83;21013;-79
2022/07/19 01:12:07;;;;;;;2.25;1.40;;;;;;;17.88;58.48;100254.48;1740042;81;21010;-73
2022/07/19 01:14:35;;;;;;;1.50;1.27;;;;;;;17.90;58.54;100256.36;1725072;81;21521;-74
2022/07/19 01:17:04;;;;;;;2.42;1.40;;;;;;;17.91;58.68;100261.25;1734139;81;21065;-69
2022/07/19 01:19:31;;;;;;;1.52;1.20;;;;;;;17.90;58.82;100256.91;1740518;81;21048;-70
2022/07/19 01:21:59;;;;;;;1.98;1.60;;;;;;;17.90;59.16;100263.70;1704716;83;20976;-67
2022/07/19 01:24:26;;;;;;;2.47;1.60;;;;;;;17.86;59.53;100253.40;1729390;82;21039;-69
2022/07/19 01:26:53;;;;;;;1.55;1.45;;;;;;;17.84;59.74;100254.80;1725428;82;21506;-70
2022/07/19 01:29:19;;;;;;;1.42;1.32;;;;;;;17.80;59.92;100250.44;1734702;81;21020;-69
2022/07/19 01:31:47;;;;;;;1.30;1.20;;;;;;;17.78;60.15;100253.20;1724915;81;21408;-72
2022/07/19 01:34:13;;;;;;;1.35;1.25;;;;;;;17.75;60.25;100252.39;1738313;82;21163;-72
2022/07/19 01:36:40;;;;;;;2.08;1.42;;;;;;;17.70;60.38;100245.08;1698933;82;20941;-70
2022/07/19 01:39:07;;;;;;;1.62;1.40;;;;;;;17.68;60.54;100247.28;1739944;80;21524;-73
2022/07/19 01:41:34;;;;;;;2.08;1.57;;;;;;;17.63;60.65;100243.23;1727630;81;21024;-72
2022/07/19 01:44:01;;;;;;;1.85;1.35;;;;;;;17.62;60.83;100246.23;1727261;83;20996;-68
2022/07/19 01:46:28;;;;;;;3.80;1.27;;;;;;;17.59;60.69;100251.70;1726911;83;21032;-69
2022/07/19 01:48:55;;;;;;;2.35;1.35;;;;;;;17.57;60.80;100247.59;1726993;81;21020;-73
2022/07/19 01:51:21;;;;;;;1.87;1.42;;;;;;;17.51;60.85;100249.53;1726511;82;21592;-69
2022/07/19 01:53:48;;;;;;;1.75;1.60;;;;;;;17.50;60.77;100245.20;1716210;81;21134;-74
2022/07/19 01:56:15;;;;;;;1.50;1.40;;;;;;;17.52;60.82;100248.98;1742755;82;21498;-71
2022/07/19 01:58:41;;;;;;;1.32;1.20;;;;;;;17.52;60.93;100244.36;1711184;83;21393;-70
2022/07/19 02:01:10;;;;;;;1.67;1.30;;;;;;;17.54;61.05;100249.53;1712792;82;20989;-69
2022/07/19 02:03:37;;;;;;;4.08;1.90;;;;;;;17.54;61.15;100257.69;1713866;83;21107;-71
2022/07/19 02:06:05;;;;;;;2.75;1.65;;;;;;;17.54;61.45;100259.86;1713752;83;21118;-73
2022/07/19 02:08:32;;;;;;;1.87;1.52;;;;;;;17.54;61.44;100260.41;1726240;82;21083;-71
2022/07/19 02:11:34;;;;;;;2.42;1.40;;;;;;;17.55;61.55;100252.52;1743068;81;22360;-71
2022/07/19 02:13:30;;;;;;;8.25;1.40;;;;;;;17.54;61.79;100253.06;1741071;82;20940;-74
2022/07/19 02:15:57;;;;;;;3.70;1.47;;;;;;;17.54;61.90;100257.14;1717247;81;21046;-74
2022/07/19 02:18:24;;;;;;;1.52;1.42;;;;;;;17.53;62.00;100260.95;1749242;81;21090;-75
2022/07/19 02:20:51;;;;;;;2.25;1.82;;;;;;;17.53;62.22;100260.13;1713820;83;22157;-73
2022/07/19 02:23:18;;;;;;;4.10;1.57;;;;;;;17.53;62.29;100263.67;1735319;82;21150;-74
2022/07/19 02:25:45;;;;;;;3.83;2.15;;;;;;;17.46;62.81;100260.44;1732445;81;21701;-74
2022/07/19 02:28:12;;;;;;;2.95;1.80;;;;;;;17.37;63.01;100260.22;1733428;82;21042;-73
2022/07/19 02:30:40;;;;;;;4.55;1.95;;;;;;;17.31;63.54;100261.33;1732996;81;21109;-71
2022/07/19 02:33:07;;;;;;;4.08;2.12;;;;;;;17.24;63.75;100266.28;1733232;82;21082;-73
2022/07/19 02:35:33;;;;;;;6.90;2.42;;;;;;;17.21;63.94;100264.67;1709877;82;21772;-72
2022/07/19 02:38:00;;;;;;;6.28;2.10;;;;;;;17.22;63.99;100266.27;1733332;82;21015;-76
2022/07/19 02:40:27;;;;;;;4.12;1.87;;;;;;;17.23;63.96;100258.39;1732456;81;21572;-72
2022/07/19 02:42:55;;;;;;;2.65;1.98;;;;;;;17.23;64.11;100257.84;1733376;82;21291;-71
2022/07/19 02:45:21;;;;;;;2.87;2.22;;;;;;;17.25;64.06;100261.11;1733274;82;21114;-71
2022/07/19 02:47:50;;;;;;;3.00;1.82;;;;;;;17.25;64.27;100258.94;1733518;82;20974;-71
2022/07/19 02:50:17;;;;;;;5.03;2.60;;;;;;;17.23;64.52;100259.75;1732416;81;21015;-71
2022/07/19 02:52:43;;;;;;;7.50;2.80;;;;;;;17.18;64.80;100260.59;1732874;82;20964;-71
2022/07/19 02:55:10;;;;;;;4.65;2.65;;;;;;;17.16;64.94;100258.72;1733055;81;21321;-71
2022/07/19 02:57:37;;;;;;;3.67;1.90;;;;;;;17.17;64.94;100258.17;1732368;81;21095;-72
2022/07/19 03:00:09;;;;;;;3.58;2.60;;;;;;;17.15;65.24;100258.45;1733325;82;21890;-72
2022/07/19 03:02:36;;;;;;;4.92;2.50;;;;;;;17.13;65.25;100256.54;1733700;82;20981;-70
2022/07/19 03:05:04;;;;;;;3.05;1.87;;;;;;;17.16;65.36;100248.39;1733655;82;21077;-72
2022/07/19 03:07:31;;;;;;;2.10;1.75;;;;;;;17.13;65.54;100248.38;1711175;82;21068;-71
2022/07/19 03:09:58;;;;;;;2.35;2.02;;;;;;;17.13;65.72;100255.17;1733225;81;21008;-73
2022/07/19 03:12:25;;;;;;;2.50;2.10;;;;;;;17.08;65.93;100249.77;1733007;81;21360;-72
2022/07/19 03:14:51;;;;;;;2.60;1.95;;;;;;;17.07;66.10;100252.78;1728688;82;21078;-75
2022/07/19 03:17:19;;;;;;;4.67;2.65;;;;;;;17.03;66.29;100249.78;1737926;82;20945;-76
2022/07/19 03:19:46;;;;;;;3.92;2.70;;;;;;;16.97;66.55;100244.13;1736438;81;21073;-75
2022/07/19 03:22:14;;;;;;;3.20;2.65;;;;;;;16.93;66.79;100243.03;1713130;82;21544;-74
2022/07/19 03:24:40;;;;;;;5.65;1.98;;;;;;;16.92;66.83;100246.86;1737342;81;21232;-74
2022/07/19 03:27:07;;;;;;;3.67;2.60;;;;;;;16.92;66.90;100247.68;1706945;83;20947;-78
2022/07/19 03:29:35;;;;;;;2.72;2.47;;;;;;;16.91;67.08;100246.05;1711454;81;21047;-75
2022/07/19 03:32:01;;;;;;;5.35;2.30;;;;;;;16.89;67.47;100252.29;1706935;83;21003;-75
2022/07/19 03:34:31;;;;;;;4.10;2.65;;;;;;;16.86;67.84;100252.86;1737943;82;21063;-75
2022/07/19 03:36:59;;;;;;;5.58;2.70;;;;;;;16.89;67.62;100246.04;1738447;82;21158;-75
2022/07/19 03:39:25;;;;;;;3.58;2.77;;;;;;;16.92;67.57;100249.58;1738404;82;21012;-74
2022/07/19 03:41:52;;;;;;;5.37;2.90;;;;;;;16.91;68.40;100247.41;1738438;81;21046;-73
2022/07/19 03:44:19;;;;;;;6.10;2.83;;;;;;;16.89;68.56;100239.25;1707857;82;21058;-74
2022/07/19 03:46:45;;;;;;;4.35;3.17;;;;;;;16.90;68.14;100240.34;1736297;82;21024;-74
2022/07/19 03:49:12;;;;;;;5.25;3.27;;;;;;;16.91;68.81;100243.33;1736206;82;21338;-75
2022/07/19 03:51:39;;;;;;;4.62;3.20;;;;;;;16.86;69.50;100247.97;1736339;82;21531;-72
2022/07/19 03:54:07;;;;;;;4.37;2.95;;;;;;;16.84;69.30;100249.59;1738083;82;21520;-72
2022/07/19 03:56:33;;;;;;;4.85;2.90;;;;;;;16.90;68.81;100247.13;1737990;81;21307;-71
2022/07/19 03:59:04;;;;;;;4.30;2.67;;;;;;;17.00;68.58;100255.25;1706831;83;21067;-72
2022/07/19 04:01:30;;;;;;;5.22;4.10;;;;;;;17.05;68.42;100250.34;1737604;81;21285;-72
2022/07/19 04:03:59;;;;;;;7.00;3.12;;;;;;;17.06;68.37;100247.89;1706626;84;21031;-73
2022/07/19 04:06:27;;;;;;;3.27;2.62;;;;;;;17.15;67.92;100250.83;1738206;82;20999;-73
2022/07/19 04:08:56;;;;;;;5.12;3.22;;;;;;;17.22;67.53;100252.14;1738345;82;20972;-73
2022/07/19 04:11:23;;;;;;;7.08;3.27;;;;;;;17.27;67.35;100251.30;1738708;81;21044;-73
2022/07/19 04:13:50;;;;;;;6.60;3.42;;;;;;;17.34;67.03;100247.73;1768585;81;21247;-73
2022/07/19 04:16:16;;;;;;;2.77;2.58;;;;;;;17.41;66.77;100255.84;1748233;80;20979;-73
2022/07/19 04:18:43;;;;;;;4.72;3.42;;;;;;;17.47;66.53;100252.55;1716343;83;20995;-74
2022/07/19 04:21:10;;;;;;;2.83;2.55;;;;;;;17.52;66.65;100253.06;1728691;81;21504;-72
2022/07/19 04:23:38;;;;;;;3.62;2.05;;;;;;;17.56;66.24;100250.86;1708823;82;21535;-75
2022/07/19 04:26:05;;;;;;;4.25;2.77;;;;;;;17.61;66.12;100248.13;1737882;80;21212;-72
2022/07/19 04:28:32;;;;;;;6.75;3.80;;;;;;;17.65;66.15;100245.69;1743252;81;21025;-75
2022/07/19 04:30:59;;;;;;;4.67;3.58;;;;;;;17.66;66.09;100247.28;1736605;82;20956;-72
2022/07/19 04:33:26;;;;;;;5.37;3.27;;;;;;;17.65;66.46;100254.63;1716530;81;21107;-75
2022/07/19 04:35:54;;;;;;;11.48;3.87;;;;;;;17.65;66.91;100249.19;1723608;83;21019;-72
2022/07/19 04:38:21;;;;;;;4.45;2.83;;;;;;;17.65;67.18;100257.92;1719333;81;21576;-73
2022/07/19 04:40:48;;;;;;;3.75;3.40;;;;;;;17.65;66.85;100251.91;1737141;81;20983;-75
2022/07/19 04:43:17;;;;;;;3.08;2.72;;;;;;;17.72;66.79;100248.88;1729015;82;20954;-72
2022/07/19 04:45:44;;;;;;;9.20;2.40;;;;;;;17.77;66.35;100253.75;1730681;81;21456;-72
2022/07/19 04:48:11;;;;;;;10.40;2.58;;;;;;;17.79;66.29;100255.62;1736631;82;21142;-73
2022/07/19 04:50:39;;;;;;;9.20;3.17;;;;;;;17.86;66.56;100251.22;1736530;82;21148;-70
2022/07/19 04:53:07;;;;;;;5.50;2.42;;;;;;;17.88;66.88;100250.41;1736065;82;21030;-71
2022/07/19 04:55:34;;;;;;;3.40;2.33;;;;;;;17.90;66.33;100250.91;1737051;81;21010;-70
2022/07/19 04:58:01;;;;;;;2.85;2.52;;;;;;;17.95;65.93;100250.87;1737934;82;21529;-70
2022/07/19 05:00:28;;;;;;;8.28;2.60;;;;;;;18.01;65.81;100249.75;1737657;82;20984;-71
2022/07/19 05:02:57;;;;;;;5.80;2.40;;;;;;;18.08;65.70;100251.57;1738474;82;21427;-72
2022/07/19 05:05:23;;;;;;;5.33;2.80;;;;;;;18.15;65.46;100249.34;1738304;82;20968;-72
2022/07/19 05:07:50;;;;;;;7.85;4.25;;;;;;;18.21;65.24;100256.38;1738084;82;21054;-72
2022/07/19 05:10:18;;;;;;;2.98;2.45;;;;;;;18.25;65.08;100262.88;1764739;81;21029;-71
2022/07/19 05:12:46;;;;;;;4.15;2.85;;;;;;;18.30;65.22;100264.19;1768138;81;21023;-72
2022/07/19 05:15:13;;;;;;;4.62;2.90;;;;;;;18.37;65.15;100266.55;1742613;81;21926;-70
2022/07/19 05:17:42;;;;;;;6.00;2.90;;;;;;;18.41;65.37;100256.73;1707005;84;21007;-72
2022/07/19 05:20:11;;;;;;;7.72;3.87;;;;;;;18.46;65.60;100256.69;1743610;81;21568;-72
2022/07/19 05:22:38;;;;;;;6.97;2.35;;;;;;;18.51;65.65;100259.33;1723836;82;21126;-73
2022/07/19 05:25:06;;;;;;;5.22;2.85;;;;;;;18.55;65.58;100259.08;1751698;81;21078;-70
2022/07/19 05:27:33;;;;;;;10.43;2.60;;;;;;;18.57;65.25;100259.58;1740684;81;21752;-73
2022/07/19 05:29:59;;;;;;;5.45;2.67;;;;;;;18.62;64.96;100260.08;1768225;81;21545;-70
2022/07/19 05:32:28;;;;;;;4.80;2.45;;;;;;;18.68;64.38;100265.73;1720640;81;21513;-71
2022/07/19 05:34:54;;;;;;;3.87;2.20;;;;;;;18.70;63.93;100260.83;1672503;85;21059;-74
2022/07/19 05:37:21;;;;;;;3.25;1.70;;;;;;;18.76;63.86;100262.37;1727012;81;21024;-73
2022/07/19 05:39:48;;;;;;;3.30;2.40;;;;;;;18.79;63.83;100268.63;1735027;81;21387;-72
2022/07/19 05:42:16;;;;;;;4.67;2.40;;;;;;;18.81;63.84;100269.12;1743481;81;21007;-73
2022/07/19 05:44:42;;;;;;;3.52;1.95;;;;;;;18.81;63.96;100265.04;1727727;82;21527;-72
2022/07/19 05:47:10;;;;;;;5.72;2.98;;;;;;;18.81;64.24;100262.31;1738026;82;21017;-73
2022/07/19 05:49:37;;;;;;;3.20;2.72;;;;;;;18.83;64.51;100264.21;1738480;82;21046;-73
2022/07/19 05:52:06;;;;;;;4.75;2.42;;;;;;;18.84;64.58;100269.12;1745928;81;21094;-73
2022/07/19 05:54:33;;;;;;;6.40;2.85;;;;;;;18.87;64.59;100269.34;1711411;81;21019;-73
2022/07/19 05:57:00;;;;;;;6.42;2.50;;;;;;;18.89;64.75;100267.15;1706842;84;21531;-73
2022/07/19 05:59:27;;;;;;;2.50;2.27;;;;;;;18.91;64.93;100266.28;1737553;82;21545;-74
2022/07/19 06:01:54;;;;;;;3.15;2.40;;;;;;;18.95;65.04;100268.69;1737877;82;21489;-71
2022/07/19 06:04:21;;;;;;;8.38;2.58;;;;;;;19.00;64.98;100265.91;1738026;82;21501;-72
2022/07/19 06:06:48;;;;;;;4.72;2.65;;;;;;;19.06;65.04;100272.11;1744798;81;20991;-73
2022/07/19 06:09:15;;;;;;;4.53;2.10;;;;;;;19.10;64.92;100263.05;1742551;81;21075;-74
2022/07/19 06:11:42;;;;;;;4.00;2.20;;;;;;;19.16;64.90;100265.98;1731337;81;21074;-73
2022/07/19 06:14:12;;;;;;;4.28;2.15;;;;;;;19.21;64.88;100258.28;1758781;81;21019;-73
2022/07/19 06:16:40;;;;;;;4.17;2.72;;;;;;;19.24;64.96;100259.59;1750124;81;21135;-72
2022/07/19 06:19:10;;;;;;;2.90;2.30;;;;;;;19.27;64.96;100265.85;1703815;83;20991;-72
2022/07/19 06:21:37;;;;;;;4.90;2.67;;;;;;;19.32;64.80;100261.14;1735530;81;21075;-73
2022/07/19 06:24:05;;;;;;;2.33;2.00;;;;;;;19.36;64.91;100272.27;1691868;83;21061;-73
2022/07/19 06:26:32;;;;;;;4.97;2.42;;;;;;;19.39;64.72;100265.67;1735625;82;21086;-73
2022/07/19 06:28:59;;;;;;;2.92;2.70;;;;;;;19.41;64.78;100273.02;1736814;82;21095;-75
2022/07/19 06:31:26;;;;;;;4.10;2.02;;;;;;;19.43;64.85;100272.70;1735378;81;21256;-72
2022/07/19 06:33:52;;;;;;;2.92;2.35;;;;;;;19.42;64.79;100271.11;1735587;81;21067;-72
2022/07/19 06:36:20;;;;;;;3.17;1.90;;;;;;;19.41;64.85;100273.02;1736557;82;21051;-71
2022/07/19 06:38:47;;;;;;;2.33;2.00;;;;;;;19.41;65.15;100272.20;1736488;81;21058;-73
2022/07/19 06:41:17;;;;;;;3.62;1.87;;;;;;;19.44;65.14;100274.37;1718164;82;21283;-73
2022/07/19 06:43:43;;;;;;;3.95;2.00;;;;;;;19.42;65.18;100266.47;1706711;83;20944;-72
2022/07/19 06:46:11;;;;;;;2.87;2.02;;;;;;;19.41;65.12;100268.11;1705288;83;21462;-74
2022/07/19 06:48:38;;;;;;;3.60;2.40;;;;;;;19.42;65.26;100260.20;1705856;83;21063;-72
2022/07/19 06:51:06;;;;;;;3.90;2.00;;;;;;;19.43;65.39;100265.34;1705881;84;21015;-73
2022/07/19 06:53:32;;;;;;;3.42;2.20;;;;;;;19.45;65.27;100255.53;1705462;84;21140;-74
2022/07/19 06:56:01;;;;;;;3.75;3.08;;;;;;;19.47;65.25;100249.24;1712012;82;21031;-72
2022/07/19 06:58:29;;;;;;;4.10;2.08;;;;;;;19.41;65.29;100253.92;1705731;83;21551;-76
2022/07/19 07:00:56;;;;;;;3.05;2.10;;;;;;;19.43;65.54;100260.43;1705723;83;21535;-73
2022/07/19 07:03:23;;;;;;;6.53;2.27;;;;;;;19.44;65.73;100260.72;1705668;83;21528;-73
2022/07/19 07:05:50;;;;;;;7.22;2.15;;;;;;;19.46;65.60;100261.25;1706230;84;21236;-72
2022/07/19 07:08:17;;;;;;;5.78;1.75;;;;;;;19.52;65.44;100265.51;1706871;84;21022;-73
2022/07/19 07:10:45;;;;;;;2.92;1.80;;;;;;;19.57;65.25;100264.08;1710306;82;21046;-71
2022/07/19 07:13:14;;;;;;;3.25;1.98;;;;;;;19.63;65.24;100262.09;1736926;82;21122;-73
2022/07/19 07:15:42;;;;;;;3.02;2.17;;;;;;;19.65;65.33;100258.52;1719590;82;20987;-69
2022/07/19 07:18:09;;;;;;;3.47;1.47;;;;;;;19.70;65.32;100263.91;1735447;82;21270;-72
2022/07/19 07:20:35;;;;;;;3.33;2.85;;;;;;;19.75;64.94;100262.47;1735129;82;20948;-70
2022/07/19 07:23:05;;;;;;;4.08;2.92;;;;;;;19.81;64.98;100272.17;1734991;82;21091;-71
2022/07/19 07:25:32;;;;;;;3.33;2.75;;;;;;;19.85;64.95;100270.50;1739458;81;21046;-73
2022/07/19 07:28:00;;;;;;;5.70;2.40;;;;;;;19.90;64.94;100275.88;1739902;82;20943;-73
2022/07/19 07:30:27;;;;;;;5.67;2.50;;;;;;;19.93;65.00;100291.11;1740111;82;21372;-74
2022/07/19 07:32:54;;;;;;;6.20;3.83;;;;;;;19.93;65.29;100284.28;1740329;81;21058;-75
2022/07/19 07:35:21;;;;;;;3.95;2.67;;;;;;;19.93;65.49;100296.57;1740370;81;20989;-71
2022/07/19 07:37:47;;;;;;;3.92;2.52;;;;;;;19.93;65.58;100295.76;1714723;82;21079;-73
2022/07/19 07:40:16;;;;;;;4.55;2.37;;;;;;;19.93;66.14;100287.56;1739491;81;20980;-72
2022/07/19 07:42:44;;;;;;;5.10;2.47;;;;;;;19.92;66.63;100282.66;1739909;82;21148;-74
2022/07/19 07:45:11;;;;;;;2.92;1.90;;;;;;;19.92;66.88;100292.21;1738208;81;21019;-73
2022/07/19 07:47:39;;;;;;;4.35;2.02;;;;;;;19.88;67.41;100294.47;1751518;81;20945;-73
2022/07/19 07:50:07;;;;;;;9.75;3.02;;;;;;;19.79;68.31;100298.42;1751359;82;21530;-74
2022/07/19 07:52:34;;;;;;;4.40;2.67;;;;;;;19.77;68.65;100294.35;1739421;81;21039;-73
2022/07/19 07:55:02;;;;;;;4.58;2.62;;;;;;;19.81;68.91;100295.38;1733044;81;21190;-76
2022/07/19 07:57:30;;;;;;;5.05;3.10;;;;;;;19.84;68.94;100292.89;1726178;81;21476;-74
2022/07/19 07:59:57;;;;;;;7.03;3.42;;;;;;;19.88;68.45;100298.02;1756089;81;20971;-76
2022/07/19 08:02:24;;;;;;;7.22;2.70;;;;;;;19.95;68.29;100286.14;1780479;80;21024;-74
2022/07/19 08:04:51;;;;;;;5.50;2.90;;;;;;;19.96;67.85;100293.23;1720884;82;21553;-72
2022/07/19 08:07:19;;;;;;;8.23;2.67;;;;;;;19.96;67.73;100291.87;1768883;80;22229;-73
2022/07/19 08:09:45;;;;;;;5.25;2.98;;;;;;;20.01;67.68;100290.98;1738641;81;21051;-74
2022/07/19 08:12:12;;;;;;;12.90;3.17;;;;;;;20.06;66.96;100291.45;1736820;81;21075;-75
2022/07/19 08:14:41;;;;;;;6.75;2.90;;;;;;;20.06;66.96;100291.45;1738690;82;20984;-73
2022/07/19 08:17:09;;;;;;;2.45;2.25;;;;;;;20.02;66.14;100288.51;1738263;82;20988;-75
2022/07/19 08:19:37;;;;;;;6.10;2.67;;;;;;;20.02;66.14;100288.51;1738230;81;22015;-77
2022/07/19 08:22:04;;;;;;;3.00;2.27;;;;;;;20.03;66.27;100292.31;1738036;82;21012;-74
2022/07/19 08:24:31;;;;;;;4.62;2.85;;;;;;;19.98;66.45;100289.66;1737842;81;21509;-75
2022/07/19 08:26:57;;;;;;;3.72;2.55;;;;;;;20.00;66.43;100292.08;1707879;83;21019;-73
2022/07/19 08:29:25;;;;;;;2.65;2.35;;;;;;;20.04;66.62;100294.50;1738306;81;21374;-74
2022/07/19 08:31:52;;;;;;;5.72;2.35;;;;;;;20.07;66.17;100291.70;1738189;82;21160;-74
2022/07/19 08:34:19;;;;;;;6.08;2.50;;;;;;;20.06;65.78;100298.28;1735884;81;20988;-74
2022/07/19 08:36:46;;;;;;;3.27;2.22;;;;;;;20.02;65.26;100294.78;1738023;81;20940;-72
2022/07/19 08:39:13;;;;;;;5.08;2.20;;;;;;;19.95;64.62;100290.24;1707178;82;21555;-73
2022/07/19 08:41:43;;;;;;;3.10;2.10;;;;;;;19.84;65.21;100302.45;1738556;81;21071;-72
2022/07/19 08:44:10;;;;;;;3.98;3.02;;;;;;;19.84;65.21;100302.45;1738017;82;21774;-71
2022/07/19 08:46:41;;;;;;;5.03;2.45;;;;;;;19.81;65.40;100302.20;1708412;81;26194;-72
2022/07/19 08:49:09;;;;;;;5.03;2.35;;;;;;;19.73;67.75;100296.88;1709434;81;20998;-74
2022/07/19 08:51:36;;;;;;;4.80;2.62;;;;;;;19.73;67.75;100296.88;1733827;82;21008;-72
2022/07/19 08:54:03;;;;;;;9.55;2.67;;;;;;;19.69;68.46;100295.03;1709977;83;21115;-74
2022/07/19 08:59:16;;;;;;;2.47;2.27;;;;;;;19.58;69.20;100287.53;1724235;82;21508;-72
2022/07/19 09:01:43;;;;;;;4.67;2.25;;;;;;;19.58;69.20;100287.53;1707193;84;21046;-74
2022/07/19 09:04:14;;;;;;;3.87;3.20;;;;;;;19.55;69.44;100282.13;1751670;81;21068;-74
2022/07/19 09:06:52;;;;;;;3.37;2.60;;;;;;;19.60;69.72;100281.24;1769118;80;21053;-73
2022/07/19 09:09:22;;;;;;;4.28;2.70;;;;;;;19.72;69.85;100272.59;1767453;80;21153;-73
2022/07/19 09:11:51;;;;;;;4.45;2.60;;;;;;;19.80;69.65;100272.76;1750531;81;20945;-73
2022/07/19 09:14:20;;;;;;;4.78;3.02;;;;;;;19.80;69.65;100272.76;1775538;80;21041;-72
2022/07/19 09:17:04;;;;;;;4.67;2.77;;;;;;;19.80;69.84;100270.58;1784687;78;21028;-75
2022/07/19 09:19:41;;;;;;;3.00;2.58;;;;;;;19.86;70.03;100266.64;1752498;80;21067;-74
2022/07/19 09:22:10;;;;;;;4.50;2.67;;;;;;;19.88;69.05;100272.08;1751845;81;21065;-75
2022/07/19 09:24:47;;;;;;;8.65;3.75;;;;;;;19.91;68.91;100266.56;1727422;81;21029;-75
2022/07/19 09:27:20;;;;;;;7.58;4.22;;;;;;;19.96;68.41;100267.30;1720233;81;20991;-76
2022/07/19 09:29:50;;;;;;;4.00;3.33;;;;;;;20.03;68.44;100265.01;1712900;83;21070;-74
2022/07/19 09:32:18;;;;;;;7.97;3.33;;;;;;;20.05;67.68;100257.86;1729934;82;21555;-76
2022/07/19 09:34:56;;;;;;;4.67;3.20;;;;;;;20.14;67.60;100254.73;1710501;83;21795;-73
2022/07/19 09:37:30;;;;;;;3.45;2.60;;;;;;;20.21;67.58;100260.60;1736689;82;20908;-75
2022/07/19 09:40:00;;;;;;;2.87;2.42;;;;;;;20.35;67.19;100256.56;1727668;82;21561;-74
2022/07/19 09:42:41;;;;;;;4.62;2.75;;;;;;;20.47;66.88;100258.27;1702128;83;21056;-78
2022/07/19 09:45:15;;;;;;;3.67;2.55;;;;;;;20.57;66.42;100251.80;1709413;83;21039;-76
2022/07/19 09:47:44;;;;;;;3.35;3.05;;;;;;;20.65;65.58;100253.27;1721977;83;21863;-78
2022/07/19 09:50:16;;;;;;;3.47;2.60;;;;;;;20.70;65.43;100252.36;1725187;83;21531;-77
2022/07/19 09:52:45;;;;;;;3.33;2.98;;;;;;;20.75;64.87;100271.41;1753669;81;20949;-75
2022/07/19 09:55:12;;;;;;;4.92;2.37;;;;;;;20.77;64.53;100260.95;1725288;83;21090;-75
2022/07/19 09:57:47;;;;;;;6.10;2.80;;;;;;;20.76;64.55;100249.80;1750654;81;20969;-74
2022/07/19 10:00:18;;;;;;;6.55;3.40;;;;;;;20.78;64.53;100244.26;1737899;81;21148;-72
2022/07/19 10:02:50;;;;;;;2.62;2.40;;;;;;;20.81;64.62;100242.86;1737844;81;21039;-73
2022/07/19 10:05:18;;;;;;;5.35;3.17;;;;;;;20.87;64.08;100233.41;1737733;82;21098;-77
2022/07/19 10:07:46;;;;;;;6.20;2.60;;;;;;;20.94;64.23;100235.75;1737785;82;21043;-74
2022/07/19 10:10:17;;;;;;;3.12;2.83;;;;;;;21.06;64.00;100238.21;1737869;82;21091;-74
2022/07/19 10:12:47;;;;;;;5.87;3.85;;;;;;;21.12;63.87;100236.99;1739335;81;39164;-76
2022/07/19 10:15:16;;;;;;;4.55;2.85;;;;;;;21.19;63.46;100237.98;1736263;81;21573;-73
2022/07/19 10:18:06;;;;;;;7.40;2.80;;;;;;;21.26;63.39;100226.86;1734502;81;20963;-72
2022/07/19 10:20:33;;;;;;;3.40;2.80;;;;;;;21.34;63.23;100221.80;1718873;81;21082;-74
2022/07/19 10:23:00;;;;;;;5.85;2.98;;;;;;;21.36;63.30;100231.30;1749068;82;21035;-74
2022/07/19 10:25:46;;;;;;;2.67;2.42;;;;;;;21.42;63.33;100227.89;1724832;82;22491;-76
2022/07/19 10:28:38;;;;;;;3.85;3.30;;;;;;;21.48;63.50;100223.37;1707670;82;21005;-73
2022/07/19 10:31:27;;;;;;;5.90;3.08;;;;;;;21.58;63.63;100229.17;1697199;82;21087;-72
2022/07/19 10:34:11;;;;;;;3.83;2.83;;;;;;;21.59;63.61;100232.14;1694489;83;21016;-74
2022/07/19 10:36:41;;;;;;;13.60;2.95;;;;;;;21.54;63.72;100228.96;1712591;83;21054;-75
2022/07/19 10:39:24;;;;;;;4.37;3.55;;;;;;;21.53;64.32;100225.19;1713191;82;21272;-73
2022/07/19 10:42:14;;;;;;;2.95;2.67;;;;;;;21.54;64.15;100226.22;1734126;82;21102;-74
2022/07/19 10:45:02;;;;;;;3.10;2.20;;;;;;;21.60;63.97;100220.89;1734939;82;20977;-72
2022/07/19 10:47:42;;;;;;;8.00;2.10;;;;;;;21.55;64.38;100206.50;1741564;81;20990;-72
2022/07/19 10:50:14;;;;;;;7.53;2.87;;;;;;;21.59;64.67;100202.84;1735586;82;21028;-71
2022/07/19 10:52:44;;;;;;;2.72;2.10;;;;;;;21.67;64.51;100195.27;1736650;82;21110;-70
2022/07/19 10:55:31;;;;;;;14.75;10.72;;;;;;;21.81;64.19;100202.60;1735859;82;21036;-75
2022/07/19 10:58:09;;;;;;;4.70;3.30;;;;;;;22.00;62.07;100198.58;1721130;83;21043;-73
2022/07/19 11:00:49;;;;;;;1.60;1.50;;;;;;;22.13;60.89;100194.94;1737712;81;21082;-74
2022/07/19 11:03:26;;;;;;;2.12;1.15;;;;;;;22.25;59.96;100183.41;1735537;81;21471;-79
2022/07/19 11:06:00;;;;;;;1.40;1.30;;;;;;;22.42;59.39;100187.58;1753707;81;21068;-81
2022/07/19 11:08:38;;;;;;;1.50;1.00;;;;;;;22.59;59.21;100184.89;1766027;81;21510;-84
2022/07/19 11:11:14;;;;;;;1.52;1.12;;;;;;;22.85;57.79;100192.42;1741964;80;21373;-79
2022/07/19 11:13:46;;;;;;;1.37;1.27;;;;;;;23.04;57.19;100181.98;1733105;81;20989;-71
2022/07/19 11:16:14;;;;;;;1.50;1.40;;;;;;;23.16;56.76;100187.66;1749981;81;21116;-83
2022/07/19 11:18:43;;;;;;;1.72;1.10;;;;;;;23.24;56.95;100208.81;1710920;82;21010;-80
2022/07/19 11:21:12;;;;;;;0.80;0.80;;;;;;;23.26;57.13;100187.91;1721347;82;21036;-72
2022/07/19 11:23:40;;;;;;;1.30;1.20;;;;;;;23.31;57.00;100178.92;1681955;84;20946;-76
2022/07/19 11:26:20;;;;;;;2.25;1.72;;;;;;;23.28;56.74;100195.24;1717361;81;21106;-76
2022/07/19 11:28:48;;;;;;;2.75;1.55;;;;;;;23.27;57.04;100183.45;1738567;82;21052;-75
2022/07/19 11:31:20;;;;;;;2.83;1.77;;;;;;;23.30;57.25;100186.95;1734214;81;21193;-78
2022/07/19 11:33:49;;;;;;;8.60;1.55;;;;;;;23.31;57.11;100172.66;1750158;81;21039;-75